Airfield :
LOGIN :

Register | Disclaimer

   EN    FR    IT 

 










Legend :    VFR   Marginal VFR   IFR   Intensive IFR   Very Intensive IFR
Visi :
Ceiling :
>= 8 km
>= 3000ft
5 to 8 km
1000 to 3000 ft
1500m to 5 km
500 to 1000 ft
800 to 1500m
200 to 500 ft
< 800m
< 200 ft
Symbols :   Thunderstorms  Fog  Heavy snow  Heavy precipitations  Wind > 20 kt
SIGMETs :     Misc.  Thunderstorms  Icing  Turbulence  Mountain Waves  Volcanic Ashes






- Airport Elevation : 354 ft
- IATA code : OER


ESNO - Örnsköldsvik

CURRENT METAR :
  • 071520Z AUTO 26011KT 9999 FEW051/// 17/07 Q1015

EXPIRED METARs :
  • 071450Z AUTO 26012KT 9999 SCT059/// 16/06 Q1015
  • 071420Z AUTO 28009KT 9999 SCT061/// 17/07 Q1015
  • 071350Z AUTO 27011KT 9999 OVC055/// 16/07 Q1015
  • 071320Z AUTO 28014KT 240V300 9999 BKN053/// 16/07 Q1015

Expired Forecast.



MET'MAP, your aeronautical weather chart ! - Copyright ORBIFLY December 2007 - Disclaimer

ORBIFLY MET'MAP TEAM :

Programming & Development : Alexandra Zaïnal
Original concept : Baudouin d'Aumeries
Technical & hardware support : Manuel Goepfert
Assistance : Marc-Olivier Méhu




SOURCES & CREDITS :

   NOAA